createdAt,value
2019-04-11T00:00:25.623Z,20.50
2019-04-11T00:01:35.874Z,19.50
2019-04-11T00:02:25.195Z,19.40
2019-04-11T00:03:25.206Z,19.40
2019-04-11T00:04:25.960Z,20.10
2019-04-11T00:05:24.889Z,20.30
2019-04-11T00:06:25.633Z,20.00
2019-04-11T00:07:24.683Z,20.10
2019-04-11T00:08:24.580Z,20.30
2019-04-11T00:09:24.895Z,20.10
2019-04-11T00:10:24.992Z,20.00
2019-04-11T00:11:24.289Z,19.90
2019-04-11T00:12:24.361Z,19.50
2019-04-11T00:13:26.995Z,20.20
2019-04-11T00:14:24.215Z,20.10
2019-04-11T00:15:24.494Z,20.80
2019-04-11T00:16:23.872Z,20.90
2019-04-11T00:17:23.784Z,20.80
2019-04-11T00:18:23.559Z,20.60
2019-04-11T00:19:23.456Z,19.30
2019-04-11T00:20:24.254Z,20.20
2019-04-11T00:21:24.502Z,20.30
2019-04-11T00:22:23.627Z,20.40
2019-04-11T00:23:23.891Z,20.60
2019-04-11T00:24:23.210Z,20.70
2019-04-11T00:25:23.195Z,21.20
2019-04-11T00:26:22.753Z,21.40
2019-04-11T00:27:22.636Z,20.50
2019-04-11T00:28:23.637Z,20.50
2019-04-11T00:29:22.675Z,19.90
2019-04-11T00:30:22.334Z,20.60
2019-04-11T00:31:23.042Z,20.70
2019-04-11T00:32:22.332Z,21.60
2019-04-11T00:33:23.114Z,21.10
2019-04-11T00:34:22.663Z,20.50
2019-04-11T00:35:21.818Z,20.80
2019-04-11T00:36:22.210Z,21.70
2019-04-11T00:37:21.616Z,21.70
2019-04-11T00:38:21.530Z,21.00
2019-04-11T00:39:21.583Z,21.00
2019-04-11T00:40:21.558Z,21.30
2019-04-11T00:41:21.773Z,21.70
2019-04-11T00:42:21.102Z,21.20
2019-04-11T00:43:30.609Z,21.60
2019-04-11T00:44:20.987Z,22.30
2019-04-11T00:45:21.289Z,22.20
2019-04-11T00:46:20.708Z,21.40
2019-04-11T00:47:20.778Z,21.60
2019-04-11T00:48:21.694Z,21.50
2019-04-11T00:49:20.384Z,21.70
2019-04-11T00:50:21.167Z,21.50
2019-04-11T00:51:20.193Z,22.00
2019-04-11T00:52:20.576Z,21.80
2019-04-11T00:53:20.468Z,21.10
2019-04-11T00:54:19.870Z,21.90
2019-04-11T00:55:19.771Z,22.10
2019-04-11T00:56:19.947Z,21.30
2019-04-11T00:57:19.561Z,21.90
2019-04-11T00:58:19.458Z,21.50
2019-04-11T00:59:20.376Z,21.40
2019-04-11T01:00:19.273Z,20.90
2019-04-11T01:01:19.805Z,21.50
2019-04-11T01:02:19.049Z,21.10
2019-04-11T01:03:20.060Z,21.40
2019-04-11T01:04:19.935Z,21.10
2019-04-11T01:05:18.747Z,21.70
2019-04-11T01:06:18.655Z,21.90
2019-04-11T01:07:18.580Z,21.60
2019-04-11T01:08:18.437Z,21.30
2019-04-11T01:09:18.331Z,21.40
2019-04-11T01:10:18.228Z,22.00
2019-04-11T01:11:18.147Z,21.30
2019-04-11T01:12:18.607Z,22.20
2019-04-11T01:13:17.924Z,21.50
2019-04-11T01:14:17.821Z,21.80
2019-04-11T01:15:17.717Z,22.10
2019-04-11T01:16:17.627Z,21.40
2019-04-11T01:17:17.510Z,22.10
2019-04-11T01:18:18.050Z,21.50
2019-04-11T01:19:18.402Z,22.40
2019-04-11T01:20:17.465Z,22.00
2019-04-11T01:21:17.896Z,22.00
2019-04-11T01:22:18.108Z,21.80
2019-04-11T01:23:16.895Z,21.90
2019-04-11T01:24:17.742Z,21.80
2019-04-11T01:25:16.752Z,21.80
2019-04-11T01:26:17.017Z,21.20
2019-04-11T01:27:16.482Z,21.20
2019-04-11T01:28:16.493Z,22.00
2019-04-11T01:29:17.484Z,22.10
2019-04-11T01:30:16.175Z,22.20
2019-04-11T01:31:16.094Z,22.40
2019-04-11T01:32:16.062Z,21.60
2019-04-11T01:33:15.970Z,23.10
2019-04-11T01:34:16.207Z,22.30
2019-04-11T01:35:15.661Z,21.90
2019-04-11T01:36:15.574Z,22.20
2019-04-11T01:37:15.571Z,21.90
2019-04-11T01:38:16.481Z,22.60
2019-04-11T01:39:15.250Z,22.00
2019-04-11T01:40:15.791Z,22.10
2019-04-11T01:41:15.141Z,22.10
2019-04-11T01:42:16.141Z,22.10
2019-04-11T01:43:15.651Z,22.10
2019-04-11T01:44:14.737Z,22.20
2019-04-11T01:45:14.632Z,22.40
2019-04-11T01:46:14.549Z,22.10
2019-04-11T01:47:15.010Z,21.90
2019-04-11T01:48:15.285Z,22.40
2019-04-11T01:49:14.340Z,21.50
2019-04-11T01:50:14.120Z,21.90
2019-04-11T01:51:14.030Z,21.70
2019-04-11T01:52:14.017Z,22.20
2019-04-11T01:53:15.047Z,23.20
2019-04-11T01:54:13.816Z,22.20
2019-04-11T01:55:14.399Z,23.30
2019-04-11T01:56:14.784Z,22.50
2019-04-11T01:57:13.841Z,22.70
2019-04-11T01:58:14.231Z,23.00
2019-04-11T01:59:13.251Z,23.30
2019-04-11T02:00:13.092Z,23.20
2019-04-11T02:01:13.100Z,23.20
2019-04-11T02:02:13.585Z,23.20
2019-04-11T02:03:12.948Z,22.90
2019-04-11T02:04:12.680Z,22.00
2019-04-11T02:05:12.579Z,22.60
2019-04-11T02:06:12.474Z,22.00
2019-04-11T02:07:12.410Z,22.10
2019-04-11T02:08:13.262Z,22.30
2019-04-11T02:09:12.166Z,23.10
2019-04-11T02:10:12.733Z,22.40
2019-04-11T02:11:12.941Z,22.70
2019-04-11T02:12:12.084Z,22.90
2019-04-11T02:13:11.961Z,23.10
2019-04-11T02:14:16.263Z,22.90
2019-04-11T02:15:12.312Z,22.90
2019-04-11T02:16:12.551Z,22.50
2019-04-11T02:17:12.523Z,22.40
2019-04-11T02:18:11.242Z,23.40
2019-04-11T02:19:12.118Z,23.30
2019-04-11T02:20:11.035Z,23.90
2019-04-11T02:21:11.555Z,23.20
2019-04-11T02:22:10.948Z,22.40
2019-04-11T02:23:10.923Z,22.90
2019-04-11T02:24:11.851Z,24.20
2019-04-11T02:25:10.523Z,23.50
2019-04-11T02:26:11.437Z,23.80
2019-04-11T02:27:10.613Z,23.60
2019-04-11T02:28:10.644Z,22.80
2019-04-11T02:29:11.132Z,24.50
2019-04-11T02:30:11.220Z,24.20
2019-04-11T02:31:11.577Z,24.10
2019-04-11T02:32:11.750Z,24.10
2019-04-11T02:33:11.687Z,23.40
2019-04-11T02:34:11.464Z,23.50
2019-04-11T02:35:11.148Z,24.40
2019-04-11T02:36:11.254Z,23.40
2019-04-11T02:37:09.679Z,23.60
2019-04-11T02:38:09.700Z,23.00
2019-04-11T02:39:14.223Z,24.30
2019-04-11T02:40:09.032Z,24.30
2019-04-11T02:41:10.584Z,24.30
2019-04-11T02:42:09.463Z,24.80
2019-04-11T02:43:09.836Z,24.90
2019-04-11T02:44:27.213Z,24.90
2019-04-11T02:45:23.090Z,24.70
2019-04-11T02:46:17.642Z,24.00
2019-04-11T02:47:13.620Z,23.50
2019-04-11T02:48:10.089Z,24.40
2019-04-11T02:49:08.218Z,23.40
2019-04-11T02:50:08.799Z,24.20
2019-04-11T02:51:07.878Z,42.10
2019-04-11T02:52:09.329Z,28.50
2019-04-11T02:53:09.263Z,31.30
2019-04-11T02:54:07.813Z,25.00
2019-04-11T02:55:08.530Z,25.10
2019-04-11T02:56:09.274Z,25.20
2019-04-11T02:57:07.943Z,24.00
2019-04-11T02:58:07.847Z,25.30
2019-04-11T02:59:07.035Z,25.40
2019-04-11T03:00:08.565Z,25.50
2019-04-11T03:01:07.949Z,25.80
2019-04-11T03:02:07.468Z,25.10
2019-04-11T03:03:08.463Z,25.00
2019-04-11T03:04:07.418Z,25.20
2019-04-11T03:05:07.126Z,25.50
2019-04-11T03:06:07.085Z,25.40
2019-04-11T03:07:07.949Z,25.50
2019-04-11T03:08:10.551Z,26.20
2019-04-11T03:09:07.042Z,26.00
2019-04-11T03:10:07.341Z,25.60
2019-04-11T03:11:07.572Z,24.60
2019-04-11T03:12:07.247Z,25.70
2019-04-11T03:13:05.760Z,25.30
2019-04-11T03:14:05.489Z,24.90
2019-04-11T03:15:24.133Z,24.20
2019-04-11T03:16:23.720Z,24.70
2019-04-11T03:17:12.917Z,24.80
2019-04-11T03:18:09.190Z,26.00
2019-04-11T03:19:22.700Z,25.70
2019-04-11T03:20:18.387Z,25.90
2019-04-11T03:21:11.312Z,25.50
2019-04-11T03:22:05.636Z,26.10
2019-04-11T03:23:07.650Z,25.60
2019-04-11T03:24:06.255Z,25.00
2019-04-11T03:25:06.014Z,25.00
2019-04-11T03:26:05.443Z,25.50
2019-04-11T03:27:04.937Z,25.20
2019-04-11T03:28:05.118Z,25.70
2019-04-11T03:29:04.187Z,26.30
2019-04-11T03:30:07.052Z,25.90
2019-04-11T03:31:37.383Z,26.30
2019-04-11T03:32:40.122Z,25.30
2019-04-11T03:37:50.012Z,25.90
2019-04-11T03:38:23.123Z,24.60
2019-04-11T03:39:21.666Z,25.40
2019-04-11T03:40:22.463Z,25.20
2019-04-11T03:41:20.428Z,25.80
2019-04-11T03:42:16.889Z,25.50
2019-04-11T03:43:16.789Z,25.00
2019-04-11T03:44:11.964Z,25.50
2019-04-11T03:45:29.021Z,25.40
2019-04-11T03:46:19.893Z,25.20
2019-04-11T03:47:18.174Z,25.30
2019-04-11T03:48:19.695Z,25.20
2019-04-11T03:49:14.784Z,25.20
2019-04-11T03:50:08.164Z,24.90
2019-04-11T03:51:02.475Z,25.00
2019-04-11T03:52:03.420Z,25.70
2019-04-11T03:53:03.497Z,25.10
2019-04-11T03:54:01.531Z,25.40
2019-04-11T03:55:03.941Z,25.50
2019-04-11T03:56:01.596Z,24.90
2019-04-11T03:57:01.291Z,25.60
2019-04-11T03:58:01.218Z,24.70
2019-04-11T03:59:01.456Z,25.00
2019-04-11T04:00:01.706Z,25.20
2019-04-11T04:01:03.389Z,25.00
2019-04-11T04:02:00.790Z,25.30
2019-04-11T04:03:01.556Z,24.70
2019-04-11T04:04:00.653Z,25.00
2019-04-11T04:05:01.346Z,24.80
2019-04-11T04:06:01.879Z,25.30
2019-04-11T04:07:00.036Z,25.00
2019-04-11T04:08:01.736Z,24.90
2019-04-11T04:09:00.681Z,24.30
2019-04-11T04:10:00.449Z,23.50
2019-04-11T04:11:00.622Z,24.60
2019-04-11T04:11:59.694Z,24.70
2019-04-11T04:13:00.799Z,24.70
2019-04-11T04:13:59.978Z,25.00
2019-04-11T04:15:01.231Z,25.20
2019-04-11T04:16:08.158Z,24.80
2019-04-11T04:17:01.651Z,25.00
2019-04-11T04:17:59.675Z,24.60
2019-04-11T04:19:01.042Z,24.60
2019-04-11T04:19:59.584Z,23.90
2019-04-11T04:20:59.714Z,24.80
2019-04-11T04:21:59.604Z,24.10
2019-04-11T04:22:58.467Z,24.50
2019-04-11T04:24:01.366Z,24.30
2019-04-11T04:24:58.939Z,24.10
2019-04-11T04:25:58.476Z,23.90
2019-04-11T04:27:00.948Z,24.20
2019-04-11T04:27:58.868Z,25.10
2019-04-11T04:28:57.896Z,24.20
2019-04-11T04:30:01.506Z,24.20
2019-04-11T04:30:57.873Z,24.40
2019-04-11T04:31:59.293Z,24.40
2019-04-11T04:32:57.408Z,24.70
2019-04-11T04:33:57.748Z,24.60
2019-04-11T04:34:58.513Z,24.50
2019-04-11T04:35:58.094Z,25.30
2019-04-11T04:36:57.872Z,24.70
2019-04-11T04:37:57.142Z,24.80
2019-04-11T04:38:57.324Z,24.60
2019-04-11T04:40:16.295Z,26.40
2019-04-11T04:41:13.477Z,25.60
2019-04-11T04:42:03.762Z,26.80
2019-04-11T04:42:58.494Z,26.00
2019-04-11T04:43:57.595Z,25.30
2019-04-11T04:44:56.141Z,26.50
2019-04-11T04:46:11.563Z,24.40
2019-04-11T04:47:10.192Z,26.50
2019-04-11T04:48:02.942Z,24.60
2019-04-11T04:48:56.147Z,26.50
2019-04-11T04:49:57.078Z,26.60
2019-04-11T04:50:57.618Z,26.10
2019-04-11T04:51:56.057Z,25.00
2019-04-11T04:52:56.052Z,24.70
2019-04-11T04:53:55.631Z,25.00
2019-04-11T04:54:57.349Z,25.60
2019-04-11T04:55:55.097Z,25.50
2019-04-11T04:56:55.198Z,25.20
2019-04-11T04:57:55.453Z,24.90
2019-04-11T04:58:56.003Z,25.00
2019-04-11T04:59:55.539Z,25.30
2019-04-11T05:00:56.769Z,25.30
2019-04-11T05:01:55.444Z,24.80
2019-04-11T05:02:55.433Z,25.50
2019-04-11T05:03:54.232Z,26.20
2019-04-11T05:04:54.325Z,25.70
2019-04-11T05:05:55.293Z,26.50
2019-04-11T05:06:54.903Z,27.30
2019-04-11T05:07:54.078Z,28.20
2019-04-11T05:08:53.662Z,27.40
2019-04-11T05:09:54.500Z,27.00
2019-04-11T05:10:53.609Z,27.50
2019-04-11T05:11:55.015Z,25.30
2019-04-11T05:12:54.787Z,24.90
2019-04-11T05:13:54.488Z,25.10
2019-04-11T05:14:54.151Z,24.20
2019-04-11T05:16:05.768Z,25.00
2019-04-11T05:16:54.487Z,24.50
2019-04-11T05:17:53.325Z,26.30
2019-04-11T05:18:52.644Z,24.90
2019-04-11T05:19:52.525Z,24.70
2019-04-11T05:20:52.769Z,24.50
2019-04-11T05:21:52.317Z,23.40
2019-04-11T05:22:52.428Z,23.80
2019-04-11T05:23:52.240Z,23.90
2019-04-11T05:24:52.012Z,23.60
2019-04-11T05:25:53.005Z,22.80
2019-04-11T05:26:52.325Z,23.00
2019-04-11T05:27:51.737Z,22.80
2019-04-11T05:28:51.618Z,22.00
2019-04-11T05:29:51.616Z,22.30
2019-04-11T05:30:51.514Z,23.10
2019-04-11T05:31:51.294Z,22.30
2019-04-11T05:32:51.394Z,21.80
2019-04-11T05:33:51.815Z,22.40
2019-04-11T05:34:51.162Z,22.00
2019-04-11T05:35:52.068Z,21.10
2019-04-11T05:36:50.783Z,21.60
2019-04-11T05:37:51.465Z,20.90
2019-04-11T05:38:50.640Z,21.50
2019-04-11T05:39:50.535Z,20.00
2019-04-11T05:40:50.402Z,21.30
2019-04-11T05:41:51.400Z,20.60
2019-04-11T05:42:53.442Z,20.60
2019-04-11T05:43:51.450Z,20.90
2019-04-11T05:44:50.042Z,20.50
2019-04-11T05:45:53.590Z,20.90
2019-04-11T05:46:56.246Z,20.60
2019-04-11T05:47:53.420Z,20.80
2019-04-11T05:48:50.577Z,20.30
2019-04-11T05:49:50.520Z,20.10
2019-04-11T05:50:51.641Z,19.60
2019-04-11T05:51:49.429Z,19.10
2019-04-11T05:52:50.325Z,19.30
2019-04-11T05:53:51.368Z,19.80
2019-04-11T05:54:49.793Z,19.20
2019-04-11T05:55:48.863Z,19.60
2019-04-11T05:56:53.703Z,19.40
2019-04-11T05:57:48.664Z,19.10
2019-04-11T05:58:49.399Z,19.30
2019-04-11T05:59:51.157Z,19.40
2019-04-11T06:00:48.942Z,19.70
2019-04-11T06:01:48.792Z,18.80
2019-04-11T06:02:49.218Z,19.20
2019-04-11T06:03:49.262Z,19.00
2019-04-11T06:04:51.748Z,18.90
2019-04-11T06:05:47.874Z,18.60
2019-04-11T06:06:47.768Z,18.70
2019-04-11T06:07:50.180Z,18.80
2019-04-11T06:08:48.259Z,18.60
2019-04-11T06:09:48.200Z,17.80
2019-04-11T06:10:48.389Z,17.50
2019-04-11T06:11:48.204Z,18.20
2019-04-11T06:12:47.318Z,17.60
2019-04-11T06:13:47.094Z,17.70
2019-04-11T06:14:47.174Z,17.50
2019-04-11T06:15:47.215Z,17.20
2019-04-11T06:16:51.907Z,17.70
2019-04-11T06:17:46.688Z,17.60
2019-04-11T06:18:46.613Z,17.20
2019-04-11T06:19:46.485Z,17.10
2019-04-11T06:20:47.235Z,16.90
2019-04-11T06:21:46.459Z,17.10
2019-04-11T06:22:46.191Z,17.50
2019-04-11T06:23:46.109Z,17.30
2019-04-11T06:24:45.996Z,17.10
2019-04-11T06:25:46.852Z,17.30
2019-04-11T06:26:46.949Z,16.90
2019-04-11T06:27:45.699Z,17.00
2019-04-11T06:28:45.620Z,17.10
2019-04-11T06:29:45.503Z,17.30
2019-04-11T06:30:45.406Z,16.80
2019-04-11T06:31:45.450Z,16.20
2019-04-11T06:32:45.859Z,16.40
2019-04-11T06:33:45.131Z,16.40
2019-04-11T06:34:45.015Z,16.00
2019-04-11T06:35:44.926Z,16.80
2019-04-11T06:36:45.452Z,16.70
2019-04-11T06:37:45.702Z,17.00
2019-04-11T06:38:44.940Z,16.30
2019-04-11T06:39:45.338Z,16.70
2019-04-11T06:40:44.432Z,16.40
2019-04-11T06:41:44.338Z,16.00
2019-04-11T06:42:44.239Z,15.30
2019-04-11T06:43:44.565Z,17.10
2019-04-11T06:44:44.049Z,16.70
2019-04-11T06:45:44.005Z,16.70
2019-04-11T06:46:52.357Z,16.40
2019-04-11T06:47:43.758Z,16.00
2019-04-11T06:48:43.678Z,16.10
2019-04-11T06:49:44.627Z,15.80
2019-04-11T06:50:43.868Z,17.00
2019-04-11T06:51:44.157Z,15.10
2019-04-11T06:52:43.379Z,14.70
2019-04-11T06:53:44.121Z,14.70
2019-04-11T06:54:43.404Z,14.80
2019-04-11T06:55:42.994Z,15.10
2019-04-11T06:56:43.401Z,14.70
2019-04-11T06:57:42.804Z,15.00
2019-04-11T06:58:43.709Z,14.40
2019-04-11T06:59:42.934Z,14.30
2019-04-11T07:00:42.620Z,14.20
2019-04-11T07:01:42.662Z,14.50
2019-04-11T07:02:42.326Z,14.30
2019-04-11T07:03:42.233Z,13.90
2019-04-11T07:04:42.151Z,14.10
2019-04-11T07:05:42.695Z,14.10
2019-04-11T07:06:41.957Z,14.60
2019-04-11T07:07:42.929Z,14.70
2019-04-11T07:08:42.656Z,14.10
2019-04-11T07:09:41.681Z,14.20
2019-04-11T07:10:42.529Z,14.70
2019-04-11T07:11:42.599Z,13.90
2019-04-11T07:12:41.371Z,13.60
2019-04-11T07:13:41.307Z,13.60
2019-04-11T07:14:41.201Z,12.60
2019-04-11T07:15:41.085Z,14.70
2019-04-11T07:16:40.993Z,14.40
2019-04-11T07:17:40.909Z,14.10
2019-04-11T07:18:40.883Z,14.20
2019-04-11T07:19:41.534Z,13.80
2019-04-11T07:20:41.415Z,13.20
2019-04-11T07:21:41.867Z,13.50
2019-04-11T07:22:41.051Z,13.40
2019-04-11T07:23:40.580Z,13.50
2019-04-11T07:24:41.047Z,13.60
2019-04-11T07:25:40.133Z,12.30
2019-04-11T07:26:40.038Z,13.90
2019-04-11T07:27:40.887Z,13.70
2019-04-11T07:28:39.956Z,13.10
2019-04-11T07:29:40.108Z,14.10
2019-04-11T07:30:39.714Z,13.50
2019-04-11T07:31:39.818Z,13.60
2019-04-11T07:32:40.570Z,14.10
2019-04-11T07:33:39.367Z,13.10
2019-04-11T07:34:40.060Z,13.30
2019-04-11T07:35:39.873Z,13.60
2019-04-11T07:36:40.435Z,13.10
2019-04-11T07:37:40.511Z,13.70
2019-04-11T07:38:38.898Z,13.50
2019-04-11T07:39:42.338Z,13.70
2019-04-11T07:40:39.463Z,13.30
2019-04-11T07:41:39.436Z,13.60
2019-04-11T07:42:39.055Z,13.50
2019-04-11T07:43:39.090Z,12.90
2019-04-11T07:44:38.611Z,13.50
2019-04-11T07:45:40.227Z,14.20
2019-04-11T07:46:38.659Z,14.00
2019-04-11T07:47:38.241Z,13.80
2019-04-11T07:48:38.148Z,13.70
2019-04-11T07:49:37.967Z,14.40
2019-04-11T07:50:37.754Z,13.50
2019-04-11T07:51:38.622Z,13.10
2019-04-11T07:52:38.016Z,13.60
2019-04-11T07:53:37.473Z,13.20
2019-04-11T07:54:37.389Z,13.30
2019-04-11T07:55:37.280Z,13.60
2019-04-11T07:56:37.545Z,13.30
2019-04-11T07:57:38.303Z,13.70
2019-04-11T07:58:37.507Z,13.70
2019-04-11T07:59:37.648Z,14.10
2019-04-11T08:00:44.213Z,13.90
2019-04-11T08:01:36.709Z,13.60
2019-04-11T08:02:37.649Z,13.70
2019-04-11T08:03:37.932Z,13.20
2019-04-11T08:04:36.514Z,13.10
2019-04-11T08:05:36.659Z,13.20
2019-04-11T08:06:37.057Z,13.40
2019-04-11T08:07:36.145Z,12.80
2019-04-11T08:08:36.810Z,14.20
2019-04-11T08:09:35.970Z,14.00
2019-04-11T08:10:37.040Z,13.90
2019-04-11T08:11:35.919Z,13.90
2019-04-11T08:12:35.680Z,13.90
2019-04-11T08:13:36.722Z,14.30
2019-04-11T08:14:35.505Z,14.60
2019-04-11T08:15:35.611Z,14.20
2019-04-11T08:16:35.296Z,15.10
2019-04-11T08:17:39.039Z,13.80
2019-04-11T08:18:35.109Z,13.80
2019-04-11T08:19:35.271Z,13.90
2019-04-11T08:20:34.923Z,14.20
2019-04-11T08:21:36.090Z,13.60
2019-04-11T08:22:35.109Z,14.10
2019-04-11T08:23:34.656Z,13.30
2019-04-11T08:24:34.663Z,14.60
2019-04-11T08:25:35.432Z,13.80
2019-04-11T08:26:34.362Z,14.00
2019-04-11T08:27:34.265Z,13.60
2019-04-11T08:28:35.484Z,13.80
2019-04-11T08:29:34.124Z,13.50
2019-04-11T08:30:35.000Z,13.30
2019-04-11T08:31:33.886Z,13.90
2019-04-11T08:32:33.823Z,14.50
2019-04-11T08:33:35.000Z,13.20
2019-04-11T08:34:33.624Z,14.00
2019-04-11T08:35:34.847Z,13.50
2019-04-11T08:36:33.785Z,13.80
2019-04-11T08:37:33.794Z,14.50
2019-04-11T08:38:34.278Z,14.90
2019-04-11T08:39:33.324Z,14.30
2019-04-11T08:40:33.613Z,14.00
2019-04-11T08:41:33.901Z,14.40
2019-04-11T08:42:33.743Z,13.70
2019-04-11T08:43:32.766Z,13.90
2019-04-11T08:44:32.697Z,13.50
2019-04-11T08:45:32.581Z,13.80
2019-04-11T08:46:33.065Z,13.80
2019-04-11T08:47:42.877Z,13.60
2019-04-11T08:48:33.041Z,13.90
2019-04-11T08:49:33.340Z,13.70
2019-04-11T08:50:32.390Z,13.50
2019-04-11T08:51:32.025Z,13.70
2019-04-11T08:52:32.070Z,14.20
2019-04-11T08:53:32.801Z,13.80
2019-04-11T08:54:31.747Z,14.20
2019-04-11T08:55:43.756Z,14.30
2019-04-11T08:56:31.559Z,13.70
2019-04-11T08:57:31.844Z,14.40
2019-04-11T08:58:31.389Z,14.70
2019-04-11T08:59:31.357Z,13.90
2019-04-11T09:00:31.843Z,13.00
2019-04-11T09:01:31.987Z,14.20
2019-04-11T09:02:31.170Z,14.70
2019-04-11T09:03:31.431Z,14.50
2019-04-11T09:04:30.817Z,14.70
2019-04-11T09:05:31.313Z,14.60
2019-04-11T09:06:30.715Z,14.60
2019-04-11T09:07:31.655Z,14.70
2019-04-11T09:08:30.445Z,14.70
2019-04-11T09:09:31.490Z,15.30
2019-04-11T09:10:30.275Z,14.20
2019-04-11T09:11:30.968Z,14.70
2019-04-11T09:12:30.842Z,14.60
2019-04-11T09:13:29.980Z,14.60
2019-04-11T09:14:30.497Z,14.20
2019-04-11T09:15:29.812Z,13.80
2019-04-11T09:16:29.862Z,14.10
2019-04-11T09:17:30.292Z,13.60
2019-04-11T09:18:30.225Z,14.20
2019-04-11T09:19:30.559Z,13.50
2019-04-11T09:20:29.762Z,13.80
2019-04-11T09:21:29.240Z,14.00
2019-04-11T09:22:29.175Z,13.20
2019-04-11T09:23:30.032Z,13.70
2019-04-11T09:24:28.958Z,14.00
2019-04-11T09:25:30.233Z,13.30
2019-04-11T09:26:28.774Z,13.60
2019-04-11T09:27:28.907Z,13.10
2019-04-11T09:28:29.212Z,13.40
2019-04-11T09:29:28.497Z,13.80
2019-04-11T09:30:28.634Z,13.70
2019-04-11T09:31:29.387Z,13.00
2019-04-11T09:32:28.583Z,14.00
2019-04-11T09:33:28.866Z,13.10
2019-04-11T09:34:28.144Z,13.90
2019-04-11T09:35:27.968Z,13.20
2019-04-11T09:36:29.024Z,13.80
2019-04-11T09:37:27.766Z,13.20
2019-04-11T09:38:28.528Z,14.10
2019-04-11T09:39:28.796Z,13.80
2019-04-11T09:40:28.063Z,13.20
2019-04-11T09:41:28.222Z,13.40
2019-04-11T09:42:28.313Z,13.70
2019-04-11T09:43:28.239Z,13.30
2019-04-11T09:44:27.115Z,13.40
2019-04-11T09:45:27.751Z,13.30
2019-04-11T09:46:27.218Z,13.90
2019-04-11T09:47:26.845Z,13.80
2019-04-11T09:48:26.748Z,12.70
2019-04-11T09:49:27.068Z,13.40
2019-04-11T09:50:26.678Z,13.40
2019-04-11T09:51:29.193Z,13.50
2019-04-11T09:52:26.979Z,12.90
2019-04-11T09:53:26.288Z,13.80
2019-04-11T09:54:26.258Z,13.40
2019-04-11T09:55:26.229Z,14.20
2019-04-11T09:56:27.019Z,13.40
2019-04-11T09:57:26.817Z,12.90
2019-04-11T09:58:25.830Z,14.50
2019-04-11T09:59:27.071Z,14.30
2019-04-11T10:00:26.678Z,14.10
2019-04-11T10:01:26.679Z,13.90
2019-04-11T10:02:25.562Z,13.50
2019-04-11T10:03:25.682Z,13.40
2019-04-11T10:04:25.615Z,13.50
2019-04-11T10:05:26.420Z,13.90
2019-04-11T10:06:25.095Z,13.40
2019-04-11T10:07:25.792Z,14.00
2019-04-11T10:08:24.916Z,13.00
2019-04-11T10:09:26.014Z,14.10
2019-04-11T10:10:24.747Z,13.30
2019-04-11T10:11:24.639Z,12.70
2019-04-11T10:12:24.551Z,14.10
2019-04-11T10:13:24.936Z,13.90
2019-04-11T10:14:24.364Z,13.50
2019-04-11T10:15:24.289Z,13.10
2019-04-11T10:16:24.286Z,13.30
2019-04-11T10:17:26.326Z,13.40
2019-04-11T10:18:27.797Z,13.20
2019-04-11T10:19:24.341Z,14.00
2019-04-11T10:20:24.529Z,13.30
2019-04-11T10:21:24.684Z,12.90
2019-04-11T10:22:23.692Z,12.90
2019-04-11T10:23:24.910Z,13.20
2019-04-11T10:24:24.234Z,12.20
2019-04-11T10:25:23.458Z,12.70
2019-04-11T10:26:23.575Z,13.00
2019-04-11T10:27:23.174Z,13.50
2019-04-11T10:28:23.085Z,13.00
2019-04-11T10:29:23.628Z,13.10
2019-04-11T10:30:23.990Z,12.80
2019-04-11T10:31:22.818Z,13.20
2019-04-11T10:32:23.311Z,12.90
2019-04-11T10:33:22.662Z,12.80
2019-04-11T10:34:23.621Z,12.20
2019-04-11T10:35:22.463Z,11.90
2019-04-11T10:36:23.152Z,13.00
2019-04-11T10:37:23.354Z,12.30
2019-04-11T10:38:22.506Z,12.70
2019-04-11T10:39:22.084Z,11.80
2019-04-11T10:40:21.997Z,12.40
2019-04-11T10:41:23.001Z,12.00
2019-04-11T10:42:22.163Z,12.60
2019-04-11T10:43:22.434Z,12.10
2019-04-11T10:44:21.631Z,13.00
2019-04-11T10:45:22.587Z,12.00
2019-04-11T10:46:21.472Z,10.70
2019-04-11T10:47:21.362Z,11.00
2019-04-11T10:48:33.496Z,12.10
2019-04-11T10:49:21.983Z,11.60
2019-04-11T10:50:21.748Z,12.10
2019-04-11T10:51:21.014Z,10.90
2019-04-11T10:52:20.905Z,11.10
2019-04-11T10:53:20.813Z,11.90
2019-04-11T10:54:21.802Z,11.30
2019-04-11T10:55:21.622Z,12.60
2019-04-11T10:56:20.558Z,12.80
2019-04-11T10:57:21.382Z,10.90
2019-04-11T10:58:20.583Z,11.50
2019-04-11T10:59:20.265Z,12.90
2019-04-11T11:00:20.915Z,12.10
2019-04-11T11:01:20.101Z,12.00
2019-04-11T11:02:20.942Z,11.40
2019-04-11T11:03:20.297Z,12.50
2019-04-11T11:04:20.004Z,12.20
2019-04-11T11:05:19.717Z,11.20
2019-04-11T11:06:19.811Z,11.00
2019-04-11T11:07:20.310Z,11.90
2019-04-11T11:08:19.504Z,12.40
2019-04-11T11:09:19.879Z,12.10
2019-04-11T11:10:19.552Z,12.50
2019-04-11T11:11:20.358Z,12.00
2019-04-11T11:12:19.131Z,11.80
2019-04-11T11:13:18.984Z,12.00
2019-04-11T11:14:18.947Z,11.60
2019-04-11T11:15:19.874Z,11.40
2019-04-11T11:16:18.725Z,12.30
2019-04-11T11:17:43.814Z,11.50
2019-04-11T11:18:59.701Z,11.90
2019-04-11T11:19:40.454Z,11.70
2019-04-11T11:20:26.744Z,11.30
2019-04-11T11:21:18.271Z,11.50
2019-04-11T11:22:18.873Z,12.60
2019-04-11T11:23:18.338Z,11.60
2019-04-11T11:24:17.985Z,11.70
2019-04-11T11:25:19.353Z,11.70
2019-04-11T11:26:22.581Z,12.00
2019-04-11T11:27:18.108Z,12.40
2019-04-11T11:28:17.897Z,11.30
2019-04-11T11:29:18.892Z,11.40
2019-04-11T11:30:17.683Z,11.90
2019-04-11T11:31:18.141Z,11.90
2019-04-11T11:32:17.270Z,11.80
2019-04-11T11:33:18.188Z,11.50
2019-04-11T11:34:19.997Z,12.10
2019-04-11T11:35:17.042Z,12.10
2019-04-11T11:36:17.346Z,12.10
2019-04-11T11:37:17.557Z,12.00
2019-04-11T11:38:17.678Z,12.60
2019-04-11T11:39:17.354Z,12.70
2019-04-11T11:40:18.318Z,13.50
2019-04-11T11:41:16.475Z,13.50
2019-04-11T11:42:16.358Z,13.40
2019-04-11T11:43:16.926Z,12.10
2019-04-11T11:44:16.177Z,11.90
2019-04-11T11:45:17.275Z,11.60
2019-04-11T11:46:16.120Z,11.60
2019-04-11T11:47:15.900Z,12.30
2019-04-11T11:48:18.789Z,12.30
2019-04-11T11:49:29.606Z,12.60
2019-04-11T11:50:18.773Z,12.20
2019-04-11T11:51:15.551Z,12.30
2019-04-11T11:52:15.446Z,12.40
2019-04-11T11:53:16.348Z,12.50
2019-04-11T11:54:15.642Z,12.20
2019-04-11T11:55:15.808Z,12.40
2019-04-11T11:56:15.905Z,12.10
2019-04-11T11:57:15.040Z,12.00
2019-04-11T11:58:17.011Z,12.20
2019-04-11T11:59:15.301Z,12.50
2019-04-11T12:00:15.022Z,12.50
2019-04-11T12:01:15.611Z,12.20
2019-04-11T12:02:17.443Z,12.50
2019-04-11T12:03:14.434Z,11.90
2019-04-11T12:04:14.793Z,12.20
2019-04-11T12:05:16.317Z,12.70
2019-04-11T12:06:16.959Z,12.20
2019-04-11T12:07:14.690Z,12.30
2019-04-11T12:08:16.474Z,12.30
2019-04-11T12:09:14.083Z,12.30
2019-04-11T12:10:13.797Z,12.60
2019-04-11T12:11:13.723Z,12.70
2019-04-11T12:12:13.619Z,11.50
2019-04-11T12:13:14.711Z,12.10
2019-04-11T12:14:13.748Z,11.60
2019-04-11T12:15:15.936Z,12.20
2019-04-11T12:16:16.052Z,12.00
2019-04-11T12:17:14.268Z,12.10
2019-04-11T12:18:15.803Z,11.80
2019-04-11T12:19:15.868Z,11.80
2019-04-11T12:20:15.997Z,11.50
2019-04-11T12:21:13.498Z,11.40
2019-04-11T12:22:12.699Z,11.30
2019-04-11T12:23:12.972Z,11.50
2019-04-11T12:24:13.521Z,11.40
2019-04-11T12:25:12.515Z,11.10
2019-04-11T12:26:14.116Z,11.20
2019-04-11T12:27:13.167Z,11.80
2019-04-11T12:28:14.705Z,12.10
2019-04-11T12:29:12.293Z,12.10
2019-04-11T12:30:11.969Z,12.50
2019-04-11T12:31:11.888Z,12.10
2019-04-11T12:32:13.239Z,11.90
2019-04-11T12:33:11.696Z,12.30
2019-04-11T12:34:12.334Z,12.10
2019-04-11T12:35:11.679Z,11.80
2019-04-11T12:36:12.458Z,12.40
2019-04-11T12:37:12.413Z,11.30
2019-04-11T12:38:11.240Z,12.00
2019-04-11T12:39:11.151Z,11.90
2019-04-11T12:40:11.061Z,12.20
2019-04-11T12:41:10.971Z,12.10
2019-04-11T12:42:10.998Z,11.90
2019-04-11T12:43:10.787Z,11.70
2019-04-11T12:44:10.696Z,11.80
2019-04-11T12:45:10.605Z,11.60
2019-04-11T12:46:10.514Z,11.90
2019-04-11T12:47:10.453Z,10.80
2019-04-11T12:48:12.203Z,11.50
2019-04-11T12:49:10.368Z,11.90
2019-04-11T12:50:10.148Z,11.30
2019-04-11T12:51:10.060Z,11.20
2019-04-11T12:52:09.985Z,11.20
2019-04-11T12:53:09.877Z,11.60
2019-04-11T12:54:09.784Z,11.40
2019-04-11T12:55:09.695Z,11.50